sensor_id;sensor_type;location;lat;lon;timestamp;P1;durP1;ratioP1;P2;durP2;ratioP2
15982;SDS011;14442;50.196;8.096;2022-11-15T00:00:54;4.33;;;2.80;;
15982;SDS011;14442;50.196;8.096;2022-11-15T00:03:22;4.73;;;2.97;;
15982;SDS011;14442;50.196;8.096;2022-11-15T00:05:51;6.13;;;3.30;;
15982;SDS011;14442;50.196;8.096;2022-11-15T00:08:18;3.83;;;2.57;;
15982;SDS011;14442;50.196;8.096;2022-11-15T00:10:53;3.90;;;2.90;;
15982;SDS011;14442;50.196;8.096;2022-11-15T00:13:20;3.33;;;2.67;;
15982;SDS011;14442;50.196;8.096;2022-11-15T00:15:47;4.90;;;2.77;;
15982;SDS011;14442;50.196;8.096;2022-11-15T00:18:14;4.43;;;2.53;;
15982;SDS011;14442;50.196;8.096;2022-11-15T00:20:41;2.50;;;2.30;;
15982;SDS011;14442;50.196;8.096;2022-11-15T00:23:09;3.47;;;2.30;;
15982;SDS011;14442;50.196;8.096;2022-11-15T00:25:36;2.90;;;2.13;;
15982;SDS011;14442;50.196;8.096;2022-11-15T00:28:03;4.60;;;2.33;;
15982;SDS011;14442;50.196;8.096;2022-11-15T00:30:29;5.30;;;2.47;;
15982;SDS011;14442;50.196;8.096;2022-11-15T00:32:56;3.17;;;2.10;;
15982;SDS011;14442;50.196;8.096;2022-11-15T00:35:27;4.13;;;2.37;;
15982;SDS011;14442;50.196;8.096;2022-11-15T00:37:53;2.53;;;2.33;;
15982;SDS011;14442;50.196;8.096;2022-11-15T00:40:21;4.63;;;2.40;;
15982;SDS011;14442;50.196;8.096;2022-11-15T00:42:48;2.57;;;2.00;;
15982;SDS011;14442;50.196;8.096;2022-11-15T00:45:15;2.37;;;2.17;;
15982;SDS011;14442;50.196;8.096;2022-11-15T00:47:43;2.57;;;1.93;;
15982;SDS011;14442;50.196;8.096;2022-11-15T00:50:10;2.73;;;2.53;;
15982;SDS011;14442;50.196;8.096;2022-11-15T00:52:37;3.00;;;2.00;;
15982;SDS011;14442;50.196;8.096;2022-11-15T00:55:05;2.20;;;1.93;;
15982;SDS011;14442;50.196;8.096;2022-11-15T00:57:34;1.87;;;1.70;;
15982;SDS011;14442;50.196;8.096;2022-11-15T01:00:00;2.17;;;1.97;;
15982;SDS011;14442;50.196;8.096;2022-11-15T01:02:27;1.67;;;1.57;;
15982;SDS011;14442;50.196;8.096;2022-11-15T01:04:54;1.70;;;1.60;;
15982;SDS011;14442;50.196;8.096;2022-11-15T01:07:20;2.30;;;1.60;;
15982;SDS011;14442;50.196;8.096;2022-11-15T01:09:47;2.13;;;1.60;;
15982;SDS011;14442;50.196;8.096;2022-11-15T01:12:14;2.37;;;1.67;;
15982;SDS011;14442;50.196;8.096;2022-11-15T01:14:41;2.73;;;1.60;;
15982;SDS011;14442;50.196;8.096;2022-11-15T01:17:08;1.73;;;1.53;;
15982;SDS011;14442;50.196;8.096;2022-11-15T01:19:35;1.97;;;1.70;;
15982;SDS011;14442;50.196;8.096;2022-11-15T01:22:01;2.33;;;2.13;;
15982;SDS011;14442;50.196;8.096;2022-11-15T01:24:28;2.23;;;1.50;;
15982;SDS011;14442;50.196;8.096;2022-11-15T01:26:55;1.83;;;1.70;;
15982;SDS011;14442;50.196;8.096;2022-11-15T01:29:22;1.80;;;1.60;;
15982;SDS011;14442;50.196;8.096;2022-11-15T01:31:50;2.50;;;1.80;;
15982;SDS011;14442;50.196;8.096;2022-11-15T01:34:18;2.07;;;1.80;;
15982;SDS011;14442;50.196;8.096;2022-11-15T01:36:45;1.73;;;1.50;;
15982;SDS011;14442;50.196;8.096;2022-11-15T01:39:11;1.83;;;1.70;;
15982;SDS011;14442;50.196;8.096;2022-11-15T01:41:38;2.20;;;1.60;;
15982;SDS011;14442;50.196;8.096;2022-11-15T01:47:17;1.53;;;1.27;;
15982;SDS011;14442;50.196;8.096;2022-11-15T01:49:49;1.50;;;1.40;;
15982;SDS011;14442;50.196;8.096;2022-11-15T01:52:21;1.40;;;1.30;;
15982;SDS011;14442;50.196;8.096;2022-11-15T01:54:50;1.77;;;1.53;;
15982;SDS011;14442;50.196;8.096;2022-11-15T01:57:21;6.03;;;1.73;;
15982;SDS011;14442;50.196;8.096;2022-11-15T01:59:48;2.20;;;1.37;;
15982;SDS011;14442;50.196;8.096;2022-11-15T02:02:14;1.50;;;1.40;;
15982;SDS011;14442;50.196;8.096;2022-11-15T02:04:43;1.97;;;1.17;;
15982;SDS011;14442;50.196;8.096;2022-11-15T02:07:12;2.80;;;1.60;;
15982;SDS011;14442;50.196;8.096;2022-11-15T02:09:41;1.37;;;1.27;;
15982;SDS011;14442;50.196;8.096;2022-11-15T02:12:09;1.37;;;1.27;;
15982;SDS011;14442;50.196;8.096;2022-11-15T02:14:38;2.00;;;1.20;;
15982;SDS011;14442;50.196;8.096;2022-11-15T02:17:08;1.40;;;1.30;;
15982;SDS011;14442;50.196;8.096;2022-11-15T02:19:58;1.27;;;1.20;;
15982;SDS011;14442;50.196;8.096;2022-11-15T02:22:47;1.53;;;1.17;;
15982;SDS011;14442;50.196;8.096;2022-11-15T02:25:36;1.10;;;1.10;;
15982;SDS011;14442;50.196;8.096;2022-11-15T02:31:09;2.07;;;1.43;;
15982;SDS011;14442;50.196;8.096;2022-11-15T02:33:41;1.53;;;1.00;;
15982;SDS011;14442;50.196;8.096;2022-11-15T02:36:18;1.00;;;1.00;;
15982;SDS011;14442;50.196;8.096;2022-11-15T02:38:54;1.07;;;0.97;;
15982;SDS011;14442;50.196;8.096;2022-11-15T02:41:27;3.07;;;1.27;;
15982;SDS011;14442;50.196;8.096;2022-11-15T02:44:02;1.40;;;1.30;;
15982;SDS011;14442;50.196;8.096;2022-11-15T02:46:34;1.13;;;1.00;;
15982;SDS011;14442;50.196;8.096;2022-11-15T02:49:22;1.33;;;1.23;;
15982;SDS011;14442;50.196;8.096;2022-11-15T02:51:51;1.90;;;1.00;;
15982;SDS011;14442;50.196;8.096;2022-11-15T02:54:20;1.67;;;1.10;;
15982;SDS011;14442;50.196;8.096;2022-11-15T02:56:49;1.27;;;0.93;;
15982;SDS011;14442;50.196;8.096;2022-11-15T02:59:23;0.90;;;0.90;;
15982;SDS011;14442;50.196;8.096;2022-11-15T03:02:13;0.97;;;0.90;;
15982;SDS011;14442;50.196;8.096;2022-11-15T03:04:50;1.90;;;0.93;;
15982;SDS011;14442;50.196;8.096;2022-11-15T03:07:22;0.90;;;0.90;;
15982;SDS011;14442;50.196;8.096;2022-11-15T03:09:57;0.70;;;0.70;;
15982;SDS011;14442;50.196;8.096;2022-11-15T03:12:33;0.83;;;0.83;;
15982;SDS011;14442;50.196;8.096;2022-11-15T03:15:05;1.00;;;1.00;;
15982;SDS011;14442;50.196;8.096;2022-11-15T03:17:37;3.03;;;1.10;;
15982;SDS011;14442;50.196;8.096;2022-11-15T03:20:06;1.27;;;1.17;;
15982;SDS011;14442;50.196;8.096;2022-11-15T03:22:36;1.93;;;0.90;;
15982;SDS011;14442;50.196;8.096;2022-11-15T03:25:05;0.80;;;0.80;;
15982;SDS011;14442;50.196;8.096;2022-11-15T03:27:35;1.13;;;1.03;;
15982;SDS011;14442;50.196;8.096;2022-11-15T03:30:06;1.00;;;1.00;;
15982;SDS011;14442;50.196;8.096;2022-11-15T03:32:36;1.77;;;1.10;;
15982;SDS011;14442;50.196;8.096;2022-11-15T03:35:06;2.87;;;0.80;;
15982;SDS011;14442;50.196;8.096;2022-11-15T03:37:35;0.70;;;0.70;;
15982;SDS011;14442;50.196;8.096;2022-11-15T03:40:07;1.10;;;0.80;;
15982;SDS011;14442;50.196;8.096;2022-11-15T03:42:36;1.33;;;0.97;;
15982;SDS011;14442;50.196;8.096;2022-11-15T03:45:08;1.07;;;0.80;;
15982;SDS011;14442;50.196;8.096;2022-11-15T03:47:43;0.63;;;0.63;;
15982;SDS011;14442;50.196;8.096;2022-11-15T03:50:15;1.60;;;0.80;;
15982;SDS011;14442;50.196;8.096;2022-11-15T03:52:44;1.13;;;1.13;;
15982;SDS011;14442;50.196;8.096;2022-11-15T03:55:13;0.80;;;0.80;;
15982;SDS011;14442;50.196;8.096;2022-11-15T03:57:41;0.70;;;0.70;;
15982;SDS011;14442;50.196;8.096;2022-11-15T04:00:09;1.00;;;1.00;;
15982;SDS011;14442;50.196;8.096;2022-11-15T04:02:37;0.50;;;0.50;;
15982;SDS011;14442;50.196;8.096;2022-11-15T04:05:05;0.90;;;0.77;;
15982;SDS011;14442;50.196;8.096;2022-11-15T04:07:32;0.90;;;0.90;;
15982;SDS011;14442;50.196;8.096;2022-11-15T04:09:59;0.93;;;0.87;;
15982;SDS011;14442;50.196;8.096;2022-11-15T04:12:28;0.50;;;0.50;;
15982;SDS011;14442;50.196;8.096;2022-11-15T04:14:58;0.80;;;0.80;;
15982;SDS011;14442;50.196;8.096;2022-11-15T04:17:35;0.83;;;0.83;;
15982;SDS011;14442;50.196;8.096;2022-11-15T04:20:06;0.80;;;0.80;;
15982;SDS011;14442;50.196;8.096;2022-11-15T04:22:52;0.70;;;0.70;;
15982;SDS011;14442;50.196;8.096;2022-11-15T04:25:37;0.83;;;0.60;;
15982;SDS011;14442;50.196;8.096;2022-11-15T04:28:04;0.77;;;0.77;;
15982;SDS011;14442;50.196;8.096;2022-11-15T04:30:30;1.13;;;1.03;;
15982;SDS011;14442;50.196;8.096;2022-11-15T04:32:56;1.33;;;0.70;;
15982;SDS011;14442;50.196;8.096;2022-11-15T04:35:24;0.90;;;0.90;;
15982;SDS011;14442;50.196;8.096;2022-11-15T04:37:51;0.83;;;0.70;;
15982;SDS011;14442;50.196;8.096;2022-11-15T04:40:18;0.80;;;0.80;;
15982;SDS011;14442;50.196;8.096;2022-11-15T04:42:44;0.70;;;0.70;;
15982;SDS011;14442;50.196;8.096;2022-11-15T04:45:11;0.50;;;0.50;;
15982;SDS011;14442;50.196;8.096;2022-11-15T04:47:38;0.70;;;0.70;;
15982;SDS011;14442;50.196;8.096;2022-11-15T04:50:05;0.90;;;0.90;;
15982;SDS011;14442;50.196;8.096;2022-11-15T04:52:33;0.67;;;0.60;;
15982;SDS011;14442;50.196;8.096;2022-11-15T04:55:00;0.70;;;0.70;;
15982;SDS011;14442;50.196;8.096;2022-11-15T04:57:27;0.60;;;0.60;;
15982;SDS011;14442;50.196;8.096;2022-11-15T04:59:53;0.73;;;0.67;;
15982;SDS011;14442;50.196;8.096;2022-11-15T05:02:20;0.70;;;0.70;;
15982;SDS011;14442;50.196;8.096;2022-11-15T05:04:47;0.93;;;0.93;;
15982;SDS011;14442;50.196;8.096;2022-11-15T05:07:12;0.90;;;0.90;;
15982;SDS011;14442;50.196;8.096;2022-11-15T05:09:40;0.70;;;0.70;;
15982;SDS011;14442;50.196;8.096;2022-11-15T05:12:07;1.17;;;0.80;;
15982;SDS011;14442;50.196;8.096;2022-11-15T05:14:33;0.60;;;0.60;;
15982;SDS011;14442;50.196;8.096;2022-11-15T05:17:00;0.93;;;0.70;;
15982;SDS011;14442;50.196;8.096;2022-11-15T05:19:27;0.60;;;0.60;;
15982;SDS011;14442;50.196;8.096;2022-11-15T05:21:53;0.63;;;0.60;;
15982;SDS011;14442;50.196;8.096;2022-11-15T05:24:20;0.60;;;0.60;;
15982;SDS011;14442;50.196;8.096;2022-11-15T05:26:48;1.00;;;0.53;;
15982;SDS011;14442;50.196;8.096;2022-11-15T05:29:15;0.90;;;0.87;;
15982;SDS011;14442;50.196;8.096;2022-11-15T05:31:41;0.90;;;0.90;;
15982;SDS011;14442;50.196;8.096;2022-11-15T05:34:08;0.67;;;0.67;;
15982;SDS011;14442;50.196;8.096;2022-11-15T05:36:36;0.80;;;0.80;;
15982;SDS011;14442;50.196;8.096;2022-11-15T05:39:07;0.70;;;0.53;;
15982;SDS011;14442;50.196;8.096;2022-11-15T05:41:35;0.50;;;0.50;;
15982;SDS011;14442;50.196;8.096;2022-11-15T05:44:07;0.80;;;0.80;;
15982;SDS011;14442;50.196;8.096;2022-11-15T05:46:36;0.60;;;0.60;;
15982;SDS011;14442;50.196;8.096;2022-11-15T05:49:05;0.70;;;0.70;;
15982;SDS011;14442;50.196;8.096;2022-11-15T05:51:35;0.87;;;0.77;;
15982;SDS011;14442;50.196;8.096;2022-11-15T05:54:02;0.70;;;0.70;;
15982;SDS011;14442;50.196;8.096;2022-11-15T05:56:29;0.60;;;0.60;;
15982;SDS011;14442;50.196;8.096;2022-11-15T05:58:56;1.53;;;0.70;;
15982;SDS011;14442;50.196;8.096;2022-11-15T06:01:25;0.77;;;0.77;;
15982;SDS011;14442;50.196;8.096;2022-11-15T06:03:53;1.90;;;0.83;;
15982;SDS011;14442;50.196;8.096;2022-11-15T06:06:20;0.70;;;0.70;;
15982;SDS011;14442;50.196;8.096;2022-11-15T06:08:46;0.80;;;0.80;;
15982;SDS011;14442;50.196;8.096;2022-11-15T06:11:13;1.27;;;0.80;;
15982;SDS011;14442;50.196;8.096;2022-11-15T06:13:40;1.30;;;0.67;;
15982;SDS011;14442;50.196;8.096;2022-11-15T06:16:07;0.70;;;0.70;;
15982;SDS011;14442;50.196;8.096;2022-11-15T06:18:35;0.60;;;0.60;;
15982;SDS011;14442;50.196;8.096;2022-11-15T06:21:02;2.53;;;0.67;;
15982;SDS011;14442;50.196;8.096;2022-11-15T06:23:31;0.80;;;0.80;;
15982;SDS011;14442;50.196;8.096;2022-11-15T06:25:59;0.67;;;0.60;;
15982;SDS011;14442;50.196;8.096;2022-11-15T06:28:27;0.60;;;0.60;;
15982;SDS011;14442;50.196;8.096;2022-11-15T06:30:55;0.70;;;0.70;;
15982;SDS011;14442;50.196;8.096;2022-11-15T06:33:22;1.10;;;1.00;;
15982;SDS011;14442;50.196;8.096;2022-11-15T06:35:50;0.60;;;0.60;;
15982;SDS011;14442;50.196;8.096;2022-11-15T06:38:17;0.70;;;0.70;;
15982;SDS011;14442;50.196;8.096;2022-11-15T06:40:43;0.80;;;0.80;;
15982;SDS011;14442;50.196;8.096;2022-11-15T06:43:10;0.93;;;0.80;;
15982;SDS011;14442;50.196;8.096;2022-11-15T06:45:37;0.83;;;0.60;;
15982;SDS011;14442;50.196;8.096;2022-11-15T06:48:03;0.73;;;0.73;;
15982;SDS011;14442;50.196;8.096;2022-11-15T06:50:31;1.97;;;0.83;;
15982;SDS011;14442;50.196;8.096;2022-11-15T06:53:01;0.80;;;0.80;;
15982;SDS011;14442;50.196;8.096;2022-11-15T06:55:29;0.60;;;0.60;;
15982;SDS011;14442;50.196;8.096;2022-11-15T06:57:55;0.80;;;0.80;;
15982;SDS011;14442;50.196;8.096;2022-11-15T07:00:22;0.77;;;0.70;;
15982;SDS011;14442;50.196;8.096;2022-11-15T07:02:50;0.80;;;0.80;;
15982;SDS011;14442;50.196;8.096;2022-11-15T07:05:16;0.50;;;0.50;;
15982;SDS011;14442;50.196;8.096;2022-11-15T07:07:45;0.80;;;0.80;;
15982;SDS011;14442;50.196;8.096;2022-11-15T07:10:18;1.27;;;0.70;;
15982;SDS011;14442;50.196;8.096;2022-11-15T07:12:46;0.60;;;0.60;;
15982;SDS011;14442;50.196;8.096;2022-11-15T07:15:14;0.67;;;0.67;;
15982;SDS011;14442;50.196;8.096;2022-11-15T07:17:40;0.60;;;0.60;;
15982;SDS011;14442;50.196;8.096;2022-11-15T07:20:07;0.83;;;0.70;;
15982;SDS011;14442;50.196;8.096;2022-11-15T07:22:34;0.50;;;0.50;;
15982;SDS011;14442;50.196;8.096;2022-11-15T07:25:01;0.87;;;0.70;;
15982;SDS011;14442;50.196;8.096;2022-11-15T07:27:29;0.60;;;0.60;;
15982;SDS011;14442;50.196;8.096;2022-11-15T07:29:56;0.67;;;0.67;;
15982;SDS011;14442;50.196;8.096;2022-11-15T07:32:23;1.13;;;0.60;;
15982;SDS011;14442;50.196;8.096;2022-11-15T07:34:49;0.70;;;0.70;;
15982;SDS011;14442;50.196;8.096;2022-11-15T07:37:16;0.80;;;0.60;;
15982;SDS011;14442;50.196;8.096;2022-11-15T07:39:43;0.63;;;0.60;;
15982;SDS011;14442;50.196;8.096;2022-11-15T07:42:10;0.90;;;0.60;;
15982;SDS011;14442;50.196;8.096;2022-11-15T07:44:55;0.77;;;0.77;;
15982;SDS011;14442;50.196;8.096;2022-11-15T07:47:22;0.50;;;0.50;;
15982;SDS011;14442;50.196;8.096;2022-11-15T07:49:49;1.23;;;0.50;;
15982;SDS011;14442;50.196;8.096;2022-11-15T07:52:16;1.37;;;0.60;;
15982;SDS011;14442;50.196;8.096;2022-11-15T07:54:42;0.77;;;0.77;;
15982;SDS011;14442;50.196;8.096;2022-11-15T07:57:09;1.50;;;0.53;;
15982;SDS011;14442;50.196;8.096;2022-11-15T07:59:35;0.90;;;0.90;;
15982;SDS011;14442;50.196;8.096;2022-11-15T08:02:03;0.60;;;0.60;;
15982;SDS011;14442;50.196;8.096;2022-11-15T08:04:30;0.73;;;0.60;;
15982;SDS011;14442;50.196;8.096;2022-11-15T08:06:57;0.60;;;0.60;;
15982;SDS011;14442;50.196;8.096;2022-11-15T08:09:24;0.90;;;0.80;;
15982;SDS011;14442;50.196;8.096;2022-11-15T08:11:51;0.57;;;0.40;;
15982;SDS011;14442;50.196;8.096;2022-11-15T08:14:17;0.70;;;0.60;;
15982;SDS011;14442;50.196;8.096;2022-11-15T08:16:46;1.70;;;0.60;;
15982;SDS011;14442;50.196;8.096;2022-11-15T08:19:14;0.50;;;0.50;;
15982;SDS011;14442;50.196;8.096;2022-11-15T08:21:41;0.80;;;0.60;;
15982;SDS011;14442;50.196;8.096;2022-11-15T08:24:08;0.60;;;0.60;;
15982;SDS011;14442;50.196;8.096;2022-11-15T08:26:36;0.77;;;0.70;;
15982;SDS011;14442;50.196;8.096;2022-11-15T08:29:03;0.87;;;0.70;;
15982;SDS011;14442;50.196;8.096;2022-11-15T08:31:29;0.60;;;0.60;;
15982;SDS011;14442;50.196;8.096;2022-11-15T08:33:56;0.60;;;0.60;;
15982;SDS011;14442;50.196;8.096;2022-11-15T08:36:24;0.50;;;0.50;;
15982;SDS011;14442;50.196;8.096;2022-11-15T08:38:51;2.10;;;0.53;;
15982;SDS011;14442;50.196;8.096;2022-11-15T08:41:19;1.20;;;0.67;;
15982;SDS011;14442;50.196;8.096;2022-11-15T08:43:51;1.80;;;0.43;;
15982;SDS011;14442;50.196;8.096;2022-11-15T08:46:18;1.97;;;0.60;;
15982;SDS011;14442;50.196;8.096;2022-11-15T08:48:44;1.30;;;0.50;;
15982;SDS011;14442;50.196;8.096;2022-11-15T08:51:11;2.50;;;0.80;;
15982;SDS011;14442;50.196;8.096;2022-11-15T08:53:39;2.27;;;0.63;;
15982;SDS011;14442;50.196;8.096;2022-11-15T08:56:06;1.67;;;0.60;;
15982;SDS011;14442;50.196;8.096;2022-11-15T08:58:34;2.50;;;0.63;;
15982;SDS011;14442;50.196;8.096;2022-11-15T09:01:00;2.63;;;0.60;;
15982;SDS011;14442;50.196;8.096;2022-11-15T09:03:27;1.30;;;0.63;;
15982;SDS011;14442;50.196;8.096;2022-11-15T09:05:54;6.07;;;1.00;;
15982;SDS011;14442;50.196;8.096;2022-11-15T09:08:22;3.20;;;0.77;;
15982;SDS011;14442;50.196;8.096;2022-11-15T09:10:50;3.47;;;1.03;;
15982;SDS011;14442;50.196;8.096;2022-11-15T09:13:17;4.47;;;1.63;;
15982;SDS011;14442;50.196;8.096;2022-11-15T09:15:43;2.83;;;1.03;;
15982;SDS011;14442;50.196;8.096;2022-11-15T09:18:10;2.83;;;0.90;;
15982;SDS011;14442;50.196;8.096;2022-11-15T09:20:37;2.70;;;0.77;;
15982;SDS011;14442;50.196;8.096;2022-11-15T09:23:04;17.23;;;7.23;;
15982;SDS011;14442;50.196;8.096;2022-11-15T09:25:31;7.27;;;3.20;;
15982;SDS011;14442;50.196;8.096;2022-11-15T09:27:59;11.47;;;4.60;;
15982;SDS011;14442;50.196;8.096;2022-11-15T09:30:26;4.97;;;3.60;;
15982;SDS011;14442;50.196;8.096;2022-11-15T09:32:53;5.87;;;3.67;;
15982;SDS011;14442;50.196;8.096;2022-11-15T09:35:19;7.93;;;3.33;;
15982;SDS011;14442;50.196;8.096;2022-11-15T09:37:46;4.13;;;2.43;;
15982;SDS011;14442;50.196;8.096;2022-11-15T09:40:13;4.33;;;2.60;;
15982;SDS011;14442;50.196;8.096;2022-11-15T09:42:47;2.70;;;2.27;;
15982;SDS011;14442;50.196;8.096;2022-11-15T09:45:26;3.47;;;2.63;;
15982;SDS011;14442;50.196;8.096;2022-11-15T09:50:57;2.37;;;2.07;;
15982;SDS011;14442;50.196;8.096;2022-11-15T09:53:38;5.17;;;1.93;;
15982;SDS011;14442;50.196;8.096;2022-11-15T09:56:14;4.47;;;2.17;;
15982;SDS011;14442;50.196;8.096;2022-11-15T09:58:44;3.33;;;2.10;;
15982;SDS011;14442;50.196;8.096;2022-11-15T10:01:19;5.13;;;2.60;;
15982;SDS011;14442;50.196;8.096;2022-11-15T10:03:57;3.13;;;2.33;;
15982;SDS011;14442;50.196;8.096;2022-11-15T10:06:25;4.77;;;2.60;;
15982;SDS011;14442;50.196;8.096;2022-11-15T10:08:55;3.63;;;2.90;;
15982;SDS011;14442;50.196;8.096;2022-11-15T10:11:31;3.00;;;2.63;;
15982;SDS011;14442;50.196;8.096;2022-11-15T10:14:01;2.63;;;1.87;;
15982;SDS011;14442;50.196;8.096;2022-11-15T10:19:34;4.10;;;2.13;;
15982;SDS011;14442;50.196;8.096;2022-11-15T10:22:11;4.40;;;2.00;;
15982;SDS011;14442;50.196;8.096;2022-11-15T10:24:48;2.37;;;2.17;;
15982;SDS011;14442;50.196;8.096;2022-11-15T10:27:18;3.83;;;2.50;;
15982;SDS011;14442;50.196;8.096;2022-11-15T10:29:46;3.47;;;2.20;;
15982;SDS011;14442;50.196;8.096;2022-11-15T10:32:15;6.00;;;2.47;;
15982;SDS011;14442;50.196;8.096;2022-11-15T10:34:44;3.07;;;2.20;;
15982;SDS011;14442;50.196;8.096;2022-11-15T10:37:11;5.53;;;2.27;;
15982;SDS011;14442;50.196;8.096;2022-11-15T10:39:38;3.97;;;2.10;;
15982;SDS011;14442;50.196;8.096;2022-11-15T10:42:15;2.43;;;2.00;;
15982;SDS011;14442;50.196;8.096;2022-11-15T10:44:43;5.00;;;2.20;;
15982;SDS011;14442;50.196;8.096;2022-11-15T10:47:22;3.60;;;2.37;;
15982;SDS011;14442;50.196;8.096;2022-11-15T10:49:58;5.63;;;2.10;;
15982;SDS011;14442;50.196;8.096;2022-11-15T10:52:27;4.13;;;2.43;;
15982;SDS011;14442;50.196;8.096;2022-11-15T10:54:57;3.37;;;2.20;;
15982;SDS011;14442;50.196;8.096;2022-11-15T10:57:28;3.70;;;1.83;;
15982;SDS011;14442;50.196;8.096;2022-11-15T10:59:58;2.70;;;2.07;;
15982;SDS011;14442;50.196;8.096;2022-11-15T11:02:29;2.53;;;2.30;;
15982;SDS011;14442;50.196;8.096;2022-11-15T11:04:58;2.30;;;1.90;;
15982;SDS011;14442;50.196;8.096;2022-11-15T11:07:25;2.03;;;1.70;;
15982;SDS011;14442;50.196;8.096;2022-11-15T11:09:57;2.23;;;2.00;;
15982;SDS011;14442;50.196;8.096;2022-11-15T11:12:27;2.50;;;1.50;;
15982;SDS011;14442;50.196;8.096;2022-11-15T11:14:56;2.13;;;1.50;;
15982;SDS011;14442;50.196;8.096;2022-11-15T11:17:26;2.93;;;1.70;;
15982;SDS011;14442;50.196;8.096;2022-11-15T11:20:05;2.13;;;1.67;;
15982;SDS011;14442;50.196;8.096;2022-11-15T11:22:38;1.90;;;1.70;;
15982;SDS011;14442;50.196;8.096;2022-11-15T11:25:24;1.23;;;1.23;;
15982;SDS011;14442;50.196;8.096;2022-11-15T11:27:59;2.17;;;1.27;;
15982;SDS011;14442;50.196;8.096;2022-11-15T11:30:41;1.50;;;1.40;;
15982;SDS011;14442;50.196;8.096;2022-11-15T11:33:17;1.73;;;1.60;;
15982;SDS011;14442;50.196;8.096;2022-11-15T11:35:50;1.50;;;1.20;;
15982;SDS011;14442;50.196;8.096;2022-11-15T11:38:32;1.40;;;1.30;;
15982;SDS011;14442;50.196;8.096;2022-11-15T11:41:07;1.63;;;1.53;;
15982;SDS011;14442;50.196;8.096;2022-11-15T11:43:42;1.83;;;1.73;;
15982;SDS011;14442;50.196;8.096;2022-11-15T11:46:23;2.50;;;1.33;;
15982;SDS011;14442;50.196;8.096;2022-11-15T11:49:09;1.77;;;1.50;;
15982;SDS011;14442;50.196;8.096;2022-11-15T11:51:39;2.17;;;1.40;;
15982;SDS011;14442;50.196;8.096;2022-11-15T11:54:11;1.37;;;1.23;;
15982;SDS011;14442;50.196;8.096;2022-11-15T11:56:41;1.43;;;1.33;;
15982;SDS011;14442;50.196;8.096;2022-11-15T11:59:12;2.80;;;1.50;;
15982;SDS011;14442;50.196;8.096;2022-11-15T12:01:45;1.57;;;1.30;;
15982;SDS011;14442;50.196;8.096;2022-11-15T12:04:14;4.40;;;1.60;;
15982;SDS011;14442;50.196;8.096;2022-11-15T12:06:46;3.10;;;1.47;;
15982;SDS011;14442;50.196;8.096;2022-11-15T12:09:17;3.50;;;1.30;;
15982;SDS011;14442;50.196;8.096;2022-11-15T12:11:51;2.43;;;1.23;;
15982;SDS011;14442;50.196;8.096;2022-11-15T12:14:31;4.77;;;1.50;;
15982;SDS011;14442;50.196;8.096;2022-11-15T12:17:01;2.20;;;1.30;;
15982;SDS011;14442;50.196;8.096;2022-11-15T12:19:30;2.93;;;1.40;;
15982;SDS011;14442;50.196;8.096;2022-11-15T12:21:59;1.17;;;1.17;;
15982;SDS011;14442;50.196;8.096;2022-11-15T12:24:29;4.30;;;1.30;;
15982;SDS011;14442;50.196;8.096;2022-11-15T12:27:01;2.10;;;1.30;;
15982;SDS011;14442;50.196;8.096;2022-11-15T12:29:33;1.17;;;1.00;;
15982;SDS011;14442;50.196;8.096;2022-11-15T12:32:04;3.67;;;1.30;;
15982;SDS011;14442;50.196;8.096;2022-11-15T12:34:45;1.63;;;1.40;;
15982;SDS011;14442;50.196;8.096;2022-11-15T12:40:05;1.70;;;1.30;;
15982;SDS011;14442;50.196;8.096;2022-11-15T12:46:04;3.13;;;1.33;;
15982;SDS011;14442;50.196;8.096;2022-11-15T12:57:58;1.23;;;1.13;;
15982;SDS011;14442;50.196;8.096;2022-11-15T13:01:06;5.00;;;1.63;;
15982;SDS011;14442;50.196;8.096;2022-11-15T13:03:33;1.40;;;1.30;;
15982;SDS011;14442;50.196;8.096;2022-11-15T13:09:03;2.00;;;1.43;;
15982;SDS011;14442;50.196;8.096;2022-11-15T13:11:41;1.20;;;1.10;;
15982;SDS011;14442;50.196;8.096;2022-11-15T13:17:15;1.43;;;1.10;;
15982;SDS011;14442;50.196;8.096;2022-11-15T13:19:53;1.33;;;1.23;;
15982;SDS011;14442;50.196;8.096;2022-11-15T13:22:23;1.00;;;1.00;;
15982;SDS011;14442;50.196;8.096;2022-11-15T13:25:14;2.30;;;1.03;;
15982;SDS011;14442;50.196;8.096;2022-11-15T13:27:44;1.23;;;1.10;;
15982;SDS011;14442;50.196;8.096;2022-11-15T13:30:14;1.37;;;1.10;;
15982;SDS011;14442;50.196;8.096;2022-11-15T13:32:46;1.07;;;1.07;;
15982;SDS011;14442;50.196;8.096;2022-11-15T13:35:18;1.00;;;1.00;;
15982;SDS011;14442;50.196;8.096;2022-11-15T13:37:47;2.17;;;1.40;;
15982;SDS011;14442;50.196;8.096;2022-11-15T13:40:17;3.70;;;1.50;;
15982;SDS011;14442;50.196;8.096;2022-11-15T13:42:47;7.40;;;1.67;;
15982;SDS011;14442;50.196;8.096;2022-11-15T13:45:16;3.50;;;1.30;;
15982;SDS011;14442;50.196;8.096;2022-11-15T13:47:44;3.97;;;1.20;;
15982;SDS011;14442;50.196;8.096;2022-11-15T13:50:17;3.20;;;1.00;;
15982;SDS011;14442;50.196;8.096;2022-11-15T13:52:46;3.93;;;1.23;;
15982;SDS011;14442;50.196;8.096;2022-11-15T13:55:15;1.40;;;1.13;;
15982;SDS011;14442;50.196;8.096;2022-11-15T13:57:45;2.20;;;1.37;;
15982;SDS011;14442;50.196;8.096;2022-11-15T14:00:26;1.10;;;1.00;;
15982;SDS011;14442;50.196;8.096;2022-11-15T14:02:57;1.83;;;1.20;;
15982;SDS011;14442;50.196;8.096;2022-11-15T14:05:33;2.13;;;1.07;;
15982;SDS011;14442;50.196;8.096;2022-11-15T14:08:01;3.03;;;1.13;;
15982;SDS011;14442;50.196;8.096;2022-11-15T14:10:30;3.03;;;1.50;;
15982;SDS011;14442;50.196;8.096;2022-11-15T14:12:59;1.77;;;1.20;;
15982;SDS011;14442;50.196;8.096;2022-11-15T14:15:29;3.73;;;1.20;;
15982;SDS011;14442;50.196;8.096;2022-11-15T14:17:58;2.07;;;1.00;;
15982;SDS011;14442;50.196;8.096;2022-11-15T14:20:26;3.27;;;0.90;;
15982;SDS011;14442;50.196;8.096;2022-11-15T14:22:56;1.53;;;0.90;;
15982;SDS011;14442;50.196;8.096;2022-11-15T14:25:24;6.00;;;1.33;;
15982;SDS011;14442;50.196;8.096;2022-11-15T14:28:09;1.87;;;1.20;;
15982;SDS011;14442;50.196;8.096;2022-11-15T14:30:57;1.97;;;1.30;;
15982;SDS011;14442;50.196;8.096;2022-11-15T14:33:27;2.33;;;0.70;;
15982;SDS011;14442;50.196;8.096;2022-11-15T14:35:56;2.60;;;1.27;;
15982;SDS011;14442;50.196;8.096;2022-11-15T14:38:23;2.00;;;1.07;;
15982;SDS011;14442;50.196;8.096;2022-11-15T14:40:50;2.50;;;1.33;;
15982;SDS011;14442;50.196;8.096;2022-11-15T14:43:18;1.43;;;1.20;;
15982;SDS011;14442;50.196;8.096;2022-11-15T14:45:45;4.37;;;2.10;;
15982;SDS011;14442;50.196;8.096;2022-11-15T14:48:13;2.27;;;2.07;;
15982;SDS011;14442;50.196;8.096;2022-11-15T14:50:40;4.83;;;2.13;;
15982;SDS011;14442;50.196;8.096;2022-11-15T14:53:10;3.20;;;1.90;;
15982;SDS011;14442;50.196;8.096;2022-11-15T14:55:38;3.47;;;2.00;;
15982;SDS011;14442;50.196;8.096;2022-11-15T14:58:05;2.40;;;2.07;;
15982;SDS011;14442;50.196;8.096;2022-11-15T15:00:33;2.17;;;1.80;;
15982;SDS011;14442;50.196;8.096;2022-11-15T15:03:00;1.53;;;1.30;;
15982;SDS011;14442;50.196;8.096;2022-11-15T15:05:31;1.70;;;1.60;;
15982;SDS011;14442;50.196;8.096;2022-11-15T15:07:59;1.70;;;1.60;;
15982;SDS011;14442;50.196;8.096;2022-11-15T15:10:25;3.33;;;1.53;;
15982;SDS011;14442;50.196;8.096;2022-11-15T15:12:56;2.23;;;1.77;;
15982;SDS011;14442;50.196;8.096;2022-11-15T15:15:23;17.10;;;3.27;;
15982;SDS011;14442;50.196;8.096;2022-11-15T15:17:52;11.53;;;2.13;;
15982;SDS011;14442;50.196;8.096;2022-11-15T15:20:19;7.93;;;1.90;;
15982;SDS011;14442;50.196;8.096;2022-11-15T15:22:47;4.87;;;1.70;;
15982;SDS011;14442;50.196;8.096;2022-11-15T15:25:19;4.37;;;1.67;;
15982;SDS011;14442;50.196;8.096;2022-11-15T15:27:47;2.37;;;1.50;;
15982;SDS011;14442;50.196;8.096;2022-11-15T15:30:14;2.83;;;1.50;;
15982;SDS011;14442;50.196;8.096;2022-11-15T15:32:41;2.10;;;1.77;;
15982;SDS011;14442;50.196;8.096;2022-11-15T15:35:10;2.53;;;1.83;;
15982;SDS011;14442;50.196;8.096;2022-11-15T15:37:38;2.73;;;1.20;;